Wilbur Observed Data For Previous 48 Hours

Caption
Day and Hour Reservoir Elevation (behind dam)* Tailwater Elevation (below dam)* Average Hourly Discharge*
6/23/2017 2 AM EDT 1,645.94 1,583.05 223
6/23/2017 3 AM EDT 1,645.62 1,583.03 220
6/23/2017 4 AM EDT 1,645.31 1,583.02 216
6/23/2017 5 AM EDT 1,644.99 1,583.00 214
6/23/2017 6 AM EDT 1,646.29 1,583.06 218
6/23/2017 7 AM EDT 1,647.63 1,583.11 231
6/23/2017 8 AM EDT 1,647.54 1,583.11 235
6/23/2017 9 AM EDT 1,647.33 1,583.10 235
6/23/2017 10 AM EDT 1,647.11 1,583.10 234
6/23/2017 11 AM EDT 1,647.18 1,583.10 232
6/23/2017 12 PM EDT 1,648.55 1,583.15 239
6/23/2017 1 PM EDT 1,649.28 1,584.05 248
6/23/2017 2 PM EDT 1,648.68 1,585.72 1,713
6/23/2017 3 PM EDT 1,647.95 1,585.69 1,763
6/23/2017 4 PM EDT 1,647.21 1,585.68 1,755
6/23/2017 5 PM EDT 1,646.57 1,585.68 1,746
6/23/2017 6 PM EDT 1,645.90 1,585.66 1,736
6/23/2017 7 PM EDT 1,647.22 1,583.15 285
6/23/2017 8 PM EDT 1,648.43 1,583.19 239
6/23/2017 9 PM EDT 1,648.20 1,583.19 243
6/23/2017 10 PM EDT 1,647.88 1,583.17 240
6/23/2017 11 PM EDT 1,647.57 1,583.16 238
6/24/2017 12 AM EDT 1,647.24 1,583.14 235
6/24/2017 1 AM EDT 1,646.90 1,583.13 231
6/24/2017 2 AM EDT 1,646.57 1,583.11 229
6/24/2017 3 AM EDT 1,646.25 1,583.09 225
6/24/2017 4 AM EDT 1,645.90 1,583.08 222
6/24/2017 5 AM EDT 1,645.59 1,583.07 220
6/24/2017 6 AM EDT 1,646.82 1,583.12 224
6/24/2017 7 AM EDT 1,648.14 1,583.17 235
6/24/2017 8 AM EDT 1,647.89 1,583.16 240
6/24/2017 9 AM EDT 1,647.58 1,583.16 238
6/24/2017 10 AM EDT 1,647.24 1,583.14 235
6/24/2017 11 AM EDT 1,646.91 1,583.12 231
6/24/2017 12 PM EDT 1,648.02 1,584.08 235
6/24/2017 1 PM EDT 1,647.15 1,586.36 1,806
6/24/2017 2 PM EDT 1,646.50 1,586.35 2,367
6/24/2017 3 PM EDT 1,646.57 1,586.36 2,360
6/24/2017 4 PM EDT 1,646.66 1,586.36 2,366
6/24/2017 5 PM EDT 1,646.74 1,586.37 2,366
6/24/2017 6 PM EDT 1,646.82 1,586.37 2,375
6/24/2017 7 PM EDT 1,646.21 1,585.66 1,848
6/24/2017 8 PM EDT 1,645.50 1,585.64 1,730
6/24/2017 9 PM EDT 1,646.88 1,583.04 270
6/24/2017 10 PM EDT 1,646.73 1,583.03 230
6/24/2017 11 PM EDT 1,646.45 1,583.02 227
6/25/2017 12 AM EDT 1,646.12 1,583.00 225
6/25/2017 1 AM EDT 1,645.82 1,582.99 221
6/25/2017 2 AM EDT 1,645.54 1,582.97 220
6/25/2017 3 AM EDT 1,645.23 1,582.96 215
6/25/2017 4 AM EDT 1,644.94 1,582.95 213
6/25/2017 5 AM EDT 1,644.64 1,582.93 210
6/25/2017 6 AM EDT 1,644.34 1,582.92 206
6/25/2017 7 AM EDT 1,645.71 1,582.97 212
6/25/2017 8 AM EDT 1,647.09 1,583.04 225
6/25/2017 9 AM EDT 1,646.95 1,583.03 230

Elevations are in feet above sea level. Discharges are in cubic feet per second and are reported at the end of the hour.